Details From EDDB - Berlin Schoenefeld
To EPKK - Balice
Flight Number -
Tags Generated
Created
Modified
Stats Distance 275 nm / 509 km
Max Altitude 0 ft / 0 m
Waypoints 3
Social Downloads 3
Likes 0
Share VATSIM

Download

Looking for another format? Having issues loading an existing format? Contact us
Advertisement - Login to hide

Notes

Generated

Route

EDDB R1855 EPKK

ID Type Via Altitude Latitude Longitude Leg Dist Tot Dist Heading (true) Name
O EDDB APT - 0 ft / 0 m 52.38012˚ 13.51714˚ - 0 nm - Berlin Schoenefeld
R1855 FIX - 0 ft / 0 m 50.07979˚ 19.79965˚ 273 nm 273 nm 118° / 123° -
O EPKK APT - 0 ft / 0 m 50.07540˚ 19.76809˚ 1 nm 274 nm 258° / 258° -

Altitude Profile

Advertisement - Login to hide

Weather


0- 5 10 15 20 25 30 35+ Temperature / ° C

Clouds and Precipitation
Forecast for 2017-12-17 12:00 UTC. Updated an hour ago

Ground ~20,000 ft ~40,000 ft Winds

EDDB

Details ICAO EDDB (BER)
Name Berlin Schoenefeld
Region Germany - Civil
Timezone Europe/Berlin (UTC+1.0)
Stats Elevation 157 ft / 48 m (AMSL)
Location 52.378541° 13.520629°
Runways 2
Magnetic Variation 3.808° E

METAR

EDDB 171020Z 31010KT 6000 -SHSN SCT008CB BKN011 01/00 Q1017 TEMPO 4000 SHSNRA BKN009

Decode

TAF

TAF AMD EDDB 170746Z 1707/1806 28009KT 9999 SCT012 BKN025 TEMPO 1708/1712 0600 +SHSNRA BKN004TCU BECMG 1719/1721 18004KT PROB30 TEMPO 1721/1806 4500 BR BKN004

Decode

Departure Runways

ID Width Length Bearing (true) Bearing (mag) Surface Threshold Offset Overrun Length
07 148 ft / 45 m 9,817 ft / 2,992 m 68.75° 64.94° Asphalt 0 ft / 0 m 984 ft / 300 m
07L 148 ft / 45 m 8,867 ft / 2,703 m 68.77° 64.96° Concrete 0 ft / 0 m 525 ft / 160 m
25 148 ft / 45 m 9,817 ft / 2,992 m 248.78° 244.97° Asphalt 0 ft / 0 m 984 ft / 300 m
25R 148 ft / 45 m 8,867 ft / 2,703 m 248.80° 244.99° Concrete 0 ft / 0 m 984 ft / 300 m

EPKK

Details ICAO EPKK (KRK)
Name BALICE
Region Poland
Timezone Europe/Warsaw (UTC+1.0)
Stats Elevation 791 ft / 241 m (AMSL)
Location 50.077821° 19.785503°
Runways 1
Magnetic Variation 5.203° E

METAR

EPKK 171030Z VRB01KT 3500 BR FEW021 01/M01 Q1017 R25/29//95

Decode

TAF

TAF AMD EPKK 170945Z 1709/1806 24004KT 5000 BR BKN033 TEMPO 1709/1806 2000 -SN BR BKN008 PROB40 1721/1806 0600 FZFG BKN002

Decode

Destination Runways

ID Width Length Bearing (true) Bearing (mag) Surface Threshold Offset Overrun Length
07 197 ft / 60 m 8,343 ft / 2,543 m 77.75° 72.55° Concrete 0 ft / 0 m 0 ft / 0 m
25 197 ft / 60 m 8,343 ft / 2,543 m 257.77° 252.57° Concrete 784 ft / 239 m 0 ft / 0 m

Approach Navaids

Runway Type Ident Frequency Range Bearing (true) Bearing (mag) Slope Elevation
25 Localiser KRW 110.30 MHz 18 nm / 33 km 257.73° 252.53° - 791 ft / 241 m (AMSL)
25 Glidescope KRW 110.30 MHz 10 nm / 19 km 257.76° 252.56° 3.00° 791 ft / 241 m (AMSL)
25 DME KRW 110.30 MHz 18 nm / 33 km - - - 827 ft / 252 m (AMSL)

Popular Alternatives